createdAt,value
2019-01-05T00:00:02.432Z,48.13
2019-01-05T00:02:55.568Z,48.23
2019-01-05T00:05:42.682Z,48.17
2019-01-05T00:08:39.869Z,48.28
2019-01-05T00:11:24.834Z,48.06
2019-01-05T00:14:20.850Z,48.16
2019-01-05T00:17:19.999Z,48.13
2019-01-05T00:20:15.021Z,48.25
2019-01-05T00:23:17.467Z,48.11
2019-01-05T00:26:07.661Z,48.03
2019-01-05T00:29:10.206Z,48.17
2019-01-05T00:31:59.789Z,48.38
2019-01-05T00:34:47.799Z,48.18
2019-01-05T00:37:34.157Z,48.04
2019-01-05T00:40:20.508Z,48.19
2019-01-05T00:43:06.253Z,48.12
2019-01-05T00:45:52.290Z,48.38
2019-01-05T00:48:38.339Z,48.13
2019-01-05T00:51:21.174Z,48.10
2019-01-05T00:54:11.066Z,48.04
2019-01-05T00:57:06.242Z,48.23
2019-01-05T00:59:56.218Z,47.96
2019-01-05T01:02:49.344Z,48.04
2019-01-05T01:05:35.091Z,48.14
2019-01-05T01:08:24.933Z,48.29
2019-01-05T01:11:24.194Z,48.07
2019-01-05T01:14:10.218Z,48.07
2019-01-05T01:16:55.951Z,48.02
2019-01-05T01:19:46.325Z,48.16
2019-01-05T01:22:32.021Z,48.30
2019-01-05T01:25:27.883Z,48.42
2019-01-05T01:28:33.333Z,48.24
2019-01-05T01:31:18.241Z,48.25
2019-01-05T01:34:02.804Z,48.12
2019-01-05T01:36:45.105Z,48.26
2019-01-05T01:39:53.129Z,48.28
2019-01-05T01:42:40.273Z,48.30
2019-01-05T01:45:31.246Z,48.11
2019-01-05T01:48:10.167Z,48.32
2019-01-05T01:50:56.142Z,48.17
2019-01-05T01:53:43.258Z,48.18
2019-01-05T01:56:29.688Z,48.08
2019-01-05T01:59:27.143Z,48.10
2019-01-05T02:02:13.402Z,48.25
2019-01-05T02:05:09.876Z,48.02
2019-01-05T02:07:57.037Z,48.15
2019-01-05T02:10:43.659Z,48.31
2019-01-05T02:13:31.429Z,47.99
2019-01-05T02:16:33.090Z,48.12
2019-01-05T02:19:40.607Z,48.04
2019-01-05T02:22:44.457Z,48.26
2019-01-05T02:25:49.014Z,48.12
2019-01-05T02:28:56.870Z,48.12
2019-01-05T02:32:01.006Z,48.13
2019-01-05T02:35:16.148Z,48.25
2019-01-05T02:38:09.073Z,48.39
2019-01-05T02:41:08.102Z,48.30
2019-01-05T02:44:19.126Z,48.25
2019-01-05T02:47:38.732Z,48.46
2019-01-05T02:50:15.363Z,48.28
2019-01-05T02:53:30.774Z,48.37
2019-01-05T02:56:41.569Z,48.29
2019-01-05T02:59:49.950Z,48.20
2019-01-05T03:03:26.101Z,48.26
2019-01-05T03:06:19.925Z,48.42
2019-01-05T03:09:23.868Z,48.32
2019-01-05T03:12:28.910Z,47.92
2019-01-05T03:15:31.869Z,48.09
2019-01-05T03:18:27.726Z,48.12
2019-01-05T03:21:36.518Z,48.23
2019-01-05T03:24:40.626Z,48.29
2019-01-05T03:27:49.561Z,48.25
2019-01-05T03:31:06.727Z,48.28
2019-01-05T03:34:01.153Z,48.23
2019-01-05T03:37:06.303Z,48.05
2019-01-05T03:40:18.229Z,48.07
2019-01-05T03:43:21.990Z,48.31
2019-01-05T03:46:43.195Z,48.25
2019-01-05T03:49:47.422Z,48.19
2019-01-05T03:53:01.113Z,48.42
2019-01-05T03:56:12.038Z,48.29
2019-01-05T03:59:04.178Z,48.31
2019-01-05T04:02:19.631Z,48.40
2019-01-05T04:05:25.036Z,48.31
2019-01-05T04:08:21.483Z,48.27
2019-01-05T04:11:54.303Z,48.15
2019-01-05T04:14:43.648Z,48.14
2019-01-05T04:18:06.598Z,48.11
2019-01-05T04:21:13.153Z,48.27
2019-01-05T04:24:33.541Z,48.14
2019-01-05T04:27:24.344Z,48.35
2019-01-05T04:30:32.330Z,48.19
2019-01-05T04:33:38.441Z,48.26
2019-01-05T04:36:34.840Z,48.33
2019-01-05T04:39:48.846Z,48.17
2019-01-05T04:42:40.555Z,48.11
2019-01-05T04:45:58.932Z,48.26
2019-01-05T04:49:05.171Z,48.29
2019-01-05T04:52:19.323Z,48.36
2019-01-05T04:55:41.444Z,48.16
2019-01-05T04:58:46.597Z,48.18
2019-01-05T05:01:49.657Z,48.47
2019-01-05T05:05:04.950Z,48.28
2019-01-05T05:08:26.128Z,48.53
2019-01-05T05:11:41.887Z,48.11
2019-01-05T05:14:57.174Z,48.31
2019-01-05T05:17:58.723Z,48.21
2019-01-05T05:21:04.310Z,48.15
2019-01-05T05:24:08.308Z,48.20
2019-01-05T05:27:09.022Z,48.20
2019-01-05T05:30:39.563Z,48.33
2019-01-05T05:33:56.649Z,48.18
2019-01-05T05:37:19.934Z,48.37
2019-01-05T05:40:39.673Z,48.26
2019-01-05T05:43:50.958Z,48.19
2019-01-05T05:47:02.234Z,48.14
2019-01-05T05:50:20.642Z,48.14
2019-01-05T05:53:16.139Z,48.15
2019-01-05T05:56:26.898Z,48.14
2019-01-05T05:59:31.470Z,48.18
2019-01-05T06:02:36.454Z,48.21
2019-01-05T06:05:53.670Z,48.04
2019-01-05T06:08:57.548Z,48.17
2019-01-05T06:12:01.818Z,48.14
2019-01-05T06:15:06.077Z,47.98
2019-01-05T06:18:21.026Z,48.22
2019-01-05T06:21:27.234Z,48.04
2019-01-05T06:24:38.051Z,48.27
2019-01-05T06:28:11.448Z,48.10
2019-01-05T06:31:16.960Z,48.24
2019-01-05T06:34:26.382Z,48.12
2019-01-05T06:37:24.407Z,48.29
2019-01-05T06:40:37.351Z,48.10
2019-01-05T06:43:55.309Z,48.18
2019-01-05T06:47:12.331Z,48.22
2019-01-05T06:50:18.573Z,48.15
2019-01-05T06:53:26.814Z,48.17
2019-01-05T06:56:46.595Z,48.23
2019-01-05T06:59:57.217Z,48.24
2019-01-05T07:03:10.132Z,48.21
2019-01-05T07:06:04.257Z,48.04
2019-01-05T07:09:14.834Z,48.17
2019-01-05T07:12:29.099Z,48.00
2019-01-05T07:15:59.098Z,47.97
2019-01-05T07:19:02.875Z,48.19
2019-01-05T07:22:39.346Z,48.18
2019-01-05T07:26:02.389Z,48.18
2019-01-05T07:29:16.854Z,48.13
2019-01-05T07:32:22.089Z,48.22
2019-01-05T07:35:25.634Z,48.27
2019-01-05T07:38:33.829Z,48.10
2019-01-05T07:41:42.814Z,48.20
2019-01-05T07:44:50.065Z,48.08
2019-01-05T07:47:53.878Z,48.20
2019-01-05T07:51:08.726Z,48.31
2019-01-05T07:54:12.641Z,48.17
2019-01-05T07:57:36.865Z,48.15
2019-01-05T08:00:48.808Z,48.12
2019-01-05T08:03:54.535Z,48.09
2019-01-05T08:06:51.123Z,48.00
2019-01-05T08:09:55.986Z,48.03
2019-01-05T08:13:04.078Z,48.03
2019-01-05T08:16:07.987Z,48.17
2019-01-05T08:19:28.902Z,48.14
2019-01-05T08:22:50.149Z,48.50
2019-01-05T08:25:54.890Z,48.22
2019-01-05T08:29:09.222Z,48.09
2019-01-05T08:32:21.891Z,48.05
2019-01-05T08:35:19.654Z,48.15
2019-01-05T08:38:25.696Z,48.03
2019-01-05T08:41:42.914Z,48.07
2019-01-05T08:44:44.181Z,48.23
2019-01-05T08:47:52.243Z,48.10
2019-01-05T08:51:02.650Z,48.13
2019-01-05T08:54:23.970Z,48.26
2019-01-05T08:57:28.969Z,48.16
2019-01-05T09:00:32.706Z,48.23
2019-01-05T09:03:56.886Z,48.04
2019-01-05T09:07:00.333Z,48.43
2019-01-05T09:10:09.851Z,48.23
2019-01-05T09:13:05.994Z,48.26
2019-01-05T09:16:33.618Z,48.05
2019-01-05T09:19:51.888Z,48.04
2019-01-05T09:23:21.983Z,48.22
2019-01-05T09:26:52.182Z,48.20
2019-01-05T09:29:59.954Z,48.16
2019-01-05T09:33:01.734Z,48.36
2019-01-05T09:36:23.302Z,48.33
2019-01-05T09:39:30.524Z,48.22
2019-01-05T09:42:34.789Z,48.07
2019-01-05T09:45:39.589Z,48.08
2019-01-05T09:48:37.219Z,48.16
2019-01-05T09:51:48.633Z,48.17
2019-01-05T09:55:29.330Z,47.84
2019-01-05T09:58:24.854Z,48.01
2019-01-05T10:01:32.481Z,48.06
2019-01-05T10:04:43.224Z,48.03
2019-01-05T10:07:52.333Z,48.15
2019-01-05T10:11:07.321Z,48.20
2019-01-05T10:14:12.537Z,48.15
2019-01-05T10:17:16.454Z,48.20
2019-01-05T10:20:27.821Z,48.15
2019-01-05T10:23:34.426Z,48.28
2019-01-05T10:30:04.774Z,48.16
2019-01-05T10:33:22.120Z,48.40
2019-01-05T10:36:20.003Z,48.17
2019-01-05T10:39:31.813Z,48.32
2019-01-05T10:43:03.243Z,48.31
2019-01-05T10:46:08.265Z,48.31
2019-01-05T10:49:13.141Z,48.36
2019-01-05T10:52:19.779Z,48.41
2019-01-05T10:55:47.465Z,48.41
2019-01-05T10:58:55.148Z,48.24
2019-01-05T11:01:52.225Z,48.38
2019-01-05T11:05:09.130Z,48.15
2019-01-05T11:08:29.982Z,48.19
2019-01-05T11:11:34.911Z,48.22
2019-01-05T11:14:49.002Z,48.28
2019-01-05T11:18:01.184Z,48.27
2019-01-05T11:21:03.429Z,48.18
2019-01-05T11:24:03.090Z,48.24
2019-01-05T11:27:21.054Z,48.14
2019-01-05T11:30:34.846Z,48.22
2019-01-05T11:33:40.024Z,48.22
2019-01-05T11:36:46.199Z,48.21
2019-01-05T11:40:09.135Z,48.11
2019-01-05T11:43:11.165Z,47.95
2019-01-05T11:46:23.122Z,48.14
2019-01-05T11:49:27.369Z,48.17
2019-01-05T11:52:48.651Z,48.13
2019-01-05T11:55:53.473Z,48.17
2019-01-05T11:59:00.891Z,48.16
2019-01-05T12:01:56.088Z,48.26
2019-01-05T12:05:04.094Z,48.28
2019-01-05T12:08:19.573Z,48.12
2019-01-05T12:11:27.094Z,48.24
2019-01-05T12:14:27.862Z,48.27
2019-01-05T12:17:32.874Z,48.04
2019-01-05T12:20:25.989Z,48.12
2019-01-05T12:23:51.180Z,48.28
2019-01-05T12:27:07.050Z,48.32
2019-01-05T12:30:20.257Z,48.32
2019-01-05T12:33:47.751Z,48.28
2019-01-05T12:37:08.011Z,48.28
2019-01-05T12:40:06.175Z,48.29
2019-01-05T12:43:10.530Z,48.35
2019-01-05T12:46:04.587Z,48.53
2019-01-05T12:49:28.181Z,48.46
2019-01-05T12:52:46.227Z,48.37
2019-01-05T12:55:55.194Z,48.50
2019-01-05T12:59:04.602Z,48.47
2019-01-05T13:02:08.326Z,48.49
2019-01-05T13:05:23.378Z,48.45
2019-01-05T13:08:35.170Z,48.42
2019-01-05T13:11:56.178Z,48.33
2019-01-05T13:15:14.345Z,48.51
2019-01-05T13:18:25.291Z,48.36
2019-01-05T13:21:46.583Z,48.68
2019-01-05T13:25:07.802Z,48.40
2019-01-05T13:28:15.005Z,48.45
2019-01-05T13:31:36.581Z,48.47
2019-01-05T13:34:53.293Z,48.51
2019-01-05T13:38:17.690Z,48.32
2019-01-05T13:41:31.524Z,48.39
2019-01-05T13:44:32.437Z,48.37
2019-01-05T13:47:46.566Z,48.52
2019-01-05T13:51:13.869Z,48.18
2019-01-05T13:54:02.130Z,48.36
2019-01-05T13:56:51.670Z,48.34
2019-01-05T13:59:33.476Z,48.52
2019-01-05T14:02:26.613Z,48.42
2019-01-05T14:05:22.906Z,48.35
2019-01-05T14:08:28.245Z,48.40
2019-01-05T14:11:15.397Z,48.33
2019-01-05T14:14:14.602Z,48.41
2019-01-05T14:17:00.455Z,48.49
2019-01-05T14:19:55.730Z,48.45
2019-01-05T14:22:41.397Z,48.51
2019-01-05T14:25:28.474Z,48.50
2019-01-05T14:28:24.841Z,48.60
2019-01-05T14:31:10.553Z,48.68
2019-01-05T14:33:57.621Z,48.77
2019-01-05T14:36:56.383Z,48.67
2019-01-05T14:39:36.740Z,48.72
2019-01-05T14:42:22.757Z,48.76
2019-01-05T14:45:09.836Z,48.64
2019-01-05T14:47:55.714Z,48.52
2019-01-05T14:50:41.654Z,48.57
2019-01-05T14:53:27.468Z,48.56
2019-01-05T14:56:12.978Z,48.55
2019-01-05T14:58:58.750Z,48.49
2019-01-05T15:02:04.209Z,48.49
2019-01-05T15:04:50.101Z,48.45
2019-01-05T15:07:28.046Z,48.40
2019-01-05T15:10:13.748Z,48.48
2019-01-05T15:13:19.356Z,48.49
2019-01-05T15:16:13.413Z,48.42
2019-01-05T15:18:58.907Z,48.58
2019-01-05T15:21:44.622Z,48.48
2019-01-05T15:24:26.898Z,48.42
2019-01-05T15:27:19.831Z,48.37
2019-01-05T15:30:12.694Z,48.43
2019-01-05T15:32:58.361Z,48.43
2019-01-05T15:36:03.898Z,48.28
2019-01-05T15:38:49.822Z,48.32
2019-01-05T15:41:42.798Z,48.42
2019-01-05T15:44:28.454Z,48.38
2019-01-05T15:47:07.921Z,48.43
2019-01-05T15:50:01.067Z,48.57
2019-01-05T15:53:00.285Z,48.49
2019-01-05T15:55:49.263Z,48.31
2019-01-05T15:58:39.357Z,48.21
2019-01-05T16:01:25.222Z,48.30
2019-01-05T16:04:15.722Z,48.45
2019-01-05T16:07:01.457Z,48.27
2019-01-05T16:09:58.277Z,48.39
2019-01-05T16:12:44.219Z,48.24
2019-01-05T16:15:37.787Z,48.67
2019-01-05T16:18:43.498Z,48.32
2019-01-05T16:21:39.529Z,48.31
2019-01-05T16:24:26.662Z,48.27
2019-01-05T16:27:10.649Z,48.24
2019-01-05T16:29:57.750Z,48.32
2019-01-05T16:32:43.466Z,47.99
2019-01-05T16:35:29.098Z,48.20
2019-01-05T16:38:12.486Z,48.27
2019-01-05T16:40:56.143Z,48.24
2019-01-05T16:43:42.117Z,48.18
2019-01-05T16:46:44.312Z,48.18
2019-01-05T16:49:41.654Z,48.20
2019-01-05T16:52:27.861Z,48.09
2019-01-05T16:55:17.994Z,48.20
2019-01-05T16:58:04.392Z,48.22
2019-01-05T17:01:09.742Z,48.24
2019-01-05T17:03:59.337Z,48.18
2019-01-05T17:06:41.486Z,48.08
2019-01-05T17:09:31.736Z,48.06
2019-01-05T17:12:33.850Z,48.23
2019-01-05T17:15:30.049Z,48.21
2019-01-05T17:18:21.778Z,48.16
2019-01-05T17:21:24.475Z,48.01
2019-01-05T17:24:20.529Z,48.13
2019-01-05T17:27:07.604Z,48.19
2019-01-05T17:30:10.079Z,48.31
2019-01-05T17:32:55.817Z,48.21
2019-01-05T17:35:45.328Z,47.97
2019-01-05T17:38:47.789Z,48.13
2019-01-05T17:41:46.102Z,48.13
2019-01-05T17:44:59.741Z,48.14
2019-01-05T17:47:39.374Z,48.31
2019-01-05T17:50:25.387Z,48.22
2019-01-05T17:53:11.680Z,48.17
2019-01-05T17:56:00.425Z,48.19
2019-01-05T17:58:50.602Z,48.18
2019-01-05T18:01:37.724Z,48.11
2019-01-05T18:04:23.772Z,48.33
2019-01-05T18:07:20.213Z,48.30
2019-01-05T18:10:13.328Z,48.25
2019-01-05T18:12:57.365Z,48.35
2019-01-05T18:15:38.261Z,48.43
2019-01-05T18:18:30.170Z,48.46
2019-01-05T18:21:35.589Z,48.26
2019-01-05T18:24:20.023Z,48.33
2019-01-05T18:27:13.009Z,48.41
2019-01-05T18:29:58.699Z,48.47
2019-01-05T18:32:52.129Z,48.51
2019-01-05T18:35:31.730Z,48.42
2019-01-05T18:38:17.397Z,48.54
2019-01-05T18:41:07.606Z,48.64
2019-01-05T18:43:53.661Z,48.53
2019-01-05T18:46:39.890Z,48.43
2019-01-05T18:49:26.017Z,48.55
2019-01-05T18:52:13.232Z,48.34
2019-01-05T18:55:03.382Z,48.37
2019-01-05T18:57:50.470Z,48.46
2019-01-05T19:00:36.730Z,48.47
2019-01-05T19:03:26.847Z,48.56
2019-01-05T19:06:12.649Z,48.50
2019-01-05T19:08:58.637Z,48.51
2019-01-05T19:11:49.781Z,48.46
2019-01-05T19:14:35.694Z,48.60
2019-01-05T19:17:22.780Z,48.70
2019-01-05T19:20:19.072Z,48.61
2019-01-05T19:23:05.014Z,48.61
2019-01-05T19:26:03.013Z,48.75
2019-01-05T19:28:59.232Z,48.58
2019-01-05T19:31:52.241Z,48.69
2019-01-05T19:34:51.769Z,48.69
2019-01-05T19:37:54.385Z,48.59
2019-01-05T19:40:40.214Z,48.68
2019-01-05T19:43:26.266Z,48.73
2019-01-05T19:46:19.420Z,48.85
2019-01-05T19:49:18.051Z,48.76
2019-01-05T19:52:14.583Z,48.84
2019-01-05T19:55:00.493Z,48.83
2019-01-05T19:57:46.559Z,48.86
2019-01-05T20:00:36.438Z,49.03
2019-01-05T20:03:23.523Z,48.98
2019-01-05T20:06:19.916Z,49.08
2019-01-05T20:09:06.194Z,48.82
2019-01-05T20:11:59.142Z,49.03
2019-01-05T20:14:44.847Z,49.00
2019-01-05T20:17:50.069Z,48.92
2019-01-05T20:20:55.231Z,48.78
2019-01-05T20:23:54.405Z,48.92
2019-01-05T20:26:40.345Z,48.75
2019-01-05T20:29:22.011Z,48.79
2019-01-05T20:32:15.117Z,48.74
2019-01-05T20:35:02.247Z,48.82
2019-01-05T20:38:04.662Z,49.02
2019-01-05T20:40:51.797Z,49.25
2019-01-05T20:43:39.167Z,49.53
2019-01-05T20:46:24.885Z,49.45
2019-01-05T20:49:21.050Z,49.29
2019-01-05T20:52:26.594Z,49.19
2019-01-05T20:55:22.412Z,49.26
2019-01-05T20:58:12.178Z,49.15
2019-01-05T21:01:20.197Z,49.33
2019-01-05T21:04:10.321Z,49.48
2019-01-05T21:06:57.430Z,49.30
2019-01-05T21:09:42.558Z,49.46
2019-01-05T21:12:32.667Z,49.42
2019-01-05T21:15:18.296Z,49.24
2019-01-05T21:18:04.100Z,49.25
2019-01-05T21:21:06.285Z,49.35
2019-01-05T21:23:52.021Z,49.29
2019-01-05T21:26:37.857Z,49.32
2019-01-05T21:29:30.909Z,49.29
2019-01-05T21:32:21.061Z,49.04
2019-01-05T21:35:03.914Z,49.01
2019-01-05T21:37:48.652Z,49.16
2019-01-05T21:40:41.670Z,48.83
2019-01-05T21:43:47.311Z,48.94
2019-01-05T21:46:40.699Z,48.92
2019-01-05T21:49:35.799Z,48.96
2019-01-05T21:52:22.186Z,48.86
2019-01-05T21:55:15.646Z,48.84
2019-01-05T21:58:02.890Z,48.95
2019-01-05T22:00:56.259Z,48.86
2019-01-05T22:03:46.413Z,48.80
2019-01-05T22:06:52.229Z,48.79
2019-01-05T22:09:54.587Z,48.61
2019-01-05T22:12:37.051Z,48.86
2019-01-05T22:15:23.338Z,48.68
2019-01-05T22:18:09.219Z,48.89
2019-01-05T22:21:06.904Z,49.20
2019-01-05T22:23:59.890Z,48.84
2019-01-05T22:26:45.638Z,48.92
2019-01-05T22:29:32.836Z,48.94
2019-01-05T22:32:26.240Z,49.13
2019-01-05T22:35:12.421Z,48.86
2019-01-05T22:37:58.331Z,48.93
2019-01-05T22:41:03.857Z,48.95
2019-01-05T22:44:09.518Z,48.86
2019-01-05T22:46:55.273Z,48.83
2019-01-05T22:49:42.397Z,48.72
2019-01-05T22:52:35.669Z,48.88
2019-01-05T22:55:21.410Z,48.84
2019-01-05T22:58:07.510Z,48.90
2019-01-05T23:01:03.759Z,49.05
2019-01-05T23:03:49.983Z,48.90
2019-01-05T23:06:51.927Z,49.15
2019-01-05T23:09:38.006Z,49.26
2019-01-05T23:12:37.141Z,49.27
2019-01-05T23:15:33.114Z,49.19
2019-01-05T23:18:32.587Z,49.23
2019-01-05T23:21:31.714Z,49.14
2019-01-05T23:24:18.806Z,49.18
2019-01-05T23:27:08.716Z,49.01
2019-01-05T23:30:17.784Z,49.17
2019-01-05T23:33:04.755Z,49.32
2019-01-05T23:35:50.769Z,49.28
2019-01-05T23:38:50.570Z,49.44
2019-01-05T23:41:36.424Z,49.21
2019-01-05T23:44:23.582Z,49.25
2019-01-05T23:47:13.884Z,49.14
2019-01-05T23:49:59.974Z,49.08
2019-01-05T23:52:46.183Z,49.07
2019-01-05T23:55:42.567Z,49.12
2019-01-05T23:58:51.920Z,49.16
